createdAt,value
2022-09-28T00:01:09.785Z,43.17
2022-09-28T00:03:37.165Z,40.53
2022-09-28T00:06:07.230Z,35.75
2022-09-28T00:08:35.343Z,37.65
2022-09-28T00:11:03.204Z,26.08
2022-09-28T00:13:31.806Z,32.25
2022-09-28T00:16:10.956Z,30.55
2022-09-28T00:21:08.248Z,22.33
2022-09-28T00:23:56.422Z,30.25
2022-09-28T00:26:23.933Z,23.70
2022-09-28T00:28:59.319Z,30.45
2022-09-28T00:31:28.224Z,31.98
2022-09-28T00:33:58.186Z,27.52
2022-09-28T00:36:27.205Z,27.40
2022-09-28T00:38:58.361Z,30.33
2022-09-28T00:41:27.594Z,21.98
2022-09-28T00:44:26.462Z,29.08
2022-09-28T00:46:58.018Z,25.27
2022-09-28T00:49:43.539Z,24.83
2022-09-28T00:52:14.941Z,26.25
2022-09-28T00:54:46.052Z,20.48
2022-09-28T00:57:13.871Z,16.25
2022-09-28T00:59:41.612Z,20.48
2022-09-28T01:02:10.597Z,21.38
2022-09-28T01:04:39.022Z,20.85
2022-09-28T01:07:09.015Z,20.58
2022-09-28T01:09:40.252Z,20.23
2022-09-28T01:12:08.049Z,17.95
2022-09-28T01:14:35.111Z,20.52
2022-09-28T01:17:17.950Z,15.30
2022-09-28T01:20:11.659Z,23.95
2022-09-28T01:22:50.425Z,20.95
2022-09-28T01:25:42.319Z,20.15
2022-09-28T01:28:14.488Z,26.23
2022-09-28T01:30:56.696Z,26.73
2022-09-28T01:33:28.905Z,32.20
2022-09-28T01:36:12.031Z,34.20
2022-09-28T01:38:47.352Z,25.27
2022-09-28T01:41:17.926Z,25.13
2022-09-28T01:43:54.948Z,22.23
2022-09-28T01:46:27.510Z,33.20
2022-09-28T01:48:57.933Z,28.90
2022-09-28T01:51:31.484Z,26.05
2022-09-28T01:54:06.658Z,27.42
2022-09-28T01:56:43.528Z,32.47
2022-09-28T01:59:16.763Z,31.35
2022-09-28T02:01:58.086Z,25.88
2022-09-28T02:04:41.520Z,25.23
2022-09-28T02:07:15.848Z,25.02
2022-09-28T02:09:47.395Z,26.75
2022-09-28T02:12:21.476Z,25.95
2022-09-28T02:14:52.268Z,26.10
2022-09-28T02:17:20.825Z,23.13
2022-09-28T02:19:48.538Z,22.63
2022-09-28T02:22:28.712Z,22.48
2022-09-28T02:24:59.542Z,19.00
2022-09-28T02:27:31.429Z,22.80
2022-09-28T02:29:58.524Z,23.40
2022-09-28T02:32:28.352Z,25.40
2022-09-28T02:34:55.652Z,24.35
2022-09-28T02:37:22.852Z,22.33
2022-09-28T02:39:49.736Z,33.85
2022-09-28T02:42:35.450Z,28.17
2022-09-28T02:45:23.534Z,35.30
2022-09-28T02:48:16.043Z,27.02
2022-09-28T02:50:48.830Z,30.23
2022-09-28T02:53:24.559Z,21.30
2022-09-28T02:56:18.757Z,27.25
2022-09-28T02:59:12.236Z,21.23
2022-09-28T03:01:59.449Z,22.35
2022-09-28T03:04:59.537Z,23.83
2022-09-28T03:07:37.328Z,25.45
2022-09-28T03:10:13.603Z,25.08
2022-09-28T03:12:43.278Z,26.23
2022-09-28T03:17:41.123Z,34.25
2022-09-28T03:20:11.071Z,42.78
2022-09-28T03:22:38.384Z,34.28
2022-09-28T03:25:06.850Z,31.55
2022-09-28T03:27:35.064Z,29.52
2022-09-28T03:30:02.200Z,23.63
2022-09-28T03:32:29.362Z,32.67
2022-09-28T03:34:56.313Z,30.15
2022-09-28T03:37:23.274Z,27.27
2022-09-28T03:39:50.250Z,25.48
2022-09-28T03:42:17.078Z,21.33
2022-09-28T03:44:48.230Z,22.08
2022-09-28T03:47:18.176Z,20.67
2022-09-28T03:49:45.946Z,21.50
2022-09-28T03:52:14.354Z,21.38
2022-09-28T03:54:44.630Z,18.80
2022-09-28T03:57:13.793Z,20.83
2022-09-28T03:59:40.701Z,13.05
2022-09-28T04:02:08.305Z,13.07
2022-09-28T04:04:35.230Z,13.85
2022-09-28T04:07:02.484Z,10.95
2022-09-28T04:09:29.475Z,14.80
2022-09-28T04:12:03.996Z,11.18
2022-09-28T04:14:32.114Z,12.60
2022-09-28T04:16:59.099Z,15.55
2022-09-28T04:19:28.255Z,16.83
2022-09-28T04:22:33.729Z,14.88
2022-09-28T04:25:00.632Z,12.35
2022-09-28T04:27:46.128Z,19.02
2022-09-28T04:30:13.517Z,15.90
2022-09-28T04:32:43.702Z,14.48
2022-09-28T04:35:12.407Z,14.18
2022-09-28T04:37:39.262Z,12.68
2022-09-28T04:40:07.172Z,13.60
2022-09-28T04:42:36.787Z,12.77
2022-09-28T04:45:05.183Z,9.77
2022-09-28T04:47:35.360Z,12.63
2022-09-28T04:50:19.656Z,13.50
2022-09-28T04:53:05.189Z,13.00
2022-09-28T04:55:32.763Z,12.55
2022-09-28T04:58:03.475Z,14.57
2022-09-28T05:00:36.044Z,19.00
2022-09-28T05:03:12.216Z,14.63
2022-09-28T05:06:18.062Z,24.50
2022-09-28T05:08:47.390Z,28.60
2022-09-28T05:11:15.569Z,30.73
2022-09-28T05:13:45.585Z,28.40
2022-09-28T05:16:16.331Z,34.78
2022-09-28T05:19:03.261Z,31.48
2022-09-28T05:21:30.946Z,34.58
2022-09-28T05:23:58.495Z,34.50
2022-09-28T05:26:26.229Z,29.88
2022-09-28T05:28:53.179Z,30.90
2022-09-28T05:31:38.114Z,26.58
2022-09-28T05:34:07.875Z,23.60
2022-09-28T05:36:35.870Z,27.23
2022-09-28T05:39:04.133Z,26.70
2022-09-28T05:41:31.642Z,25.67
2022-09-28T05:43:59.985Z,21.00
2022-09-28T05:46:26.958Z,24.02
2022-09-28T05:48:54.687Z,23.45
2022-09-28T05:51:25.490Z,25.67
2022-09-28T05:53:55.787Z,23.88
2022-09-28T05:56:24.749Z,23.60
2022-09-28T05:58:52.662Z,25.33
2022-09-28T06:01:22.265Z,19.75
2022-09-28T06:03:49.359Z,21.50
2022-09-28T06:06:16.427Z,21.50
2022-09-28T06:08:46.387Z,20.88
2022-09-28T06:11:45.654Z,22.17
2022-09-28T06:14:24.262Z,23.83
2022-09-28T06:16:51.180Z,25.92
2022-09-28T06:19:18.610Z,25.55
2022-09-28T06:22:03.995Z,25.63
2022-09-28T06:24:33.634Z,22.67
2022-09-28T06:27:01.092Z,24.45
2022-09-28T06:29:29.352Z,24.98
2022-09-28T06:31:57.798Z,24.92
2022-09-28T06:34:24.965Z,25.90
2022-09-28T06:36:52.554Z,28.63
2022-09-28T06:39:19.524Z,25.15
2022-09-28T06:41:46.453Z,25.13
2022-09-28T06:44:18.539Z,22.10
2022-09-28T06:47:07.946Z,21.95
2022-09-28T06:50:13.668Z,20.80
2022-09-28T06:52:55.058Z,28.42
2022-09-28T06:55:41.438Z,29.45
2022-09-28T06:58:12.044Z,31.48
2022-09-28T07:00:40.035Z,31.85
2022-09-28T07:03:11.770Z,30.70
2022-09-28T07:05:57.521Z,34.58
2022-09-28T07:09:07.704Z,30.75
2022-09-28T07:12:10.155Z,35.33
2022-09-28T07:15:03.987Z,34.28
2022-09-28T07:17:36.246Z,30.02
2022-09-28T07:20:17.370Z,34.33
2022-09-28T07:22:48.506Z,31.20
2022-09-28T07:25:19.629Z,30.30
2022-09-28T07:27:57.783Z,32.20
2022-09-28T07:30:42.408Z,30.40
2022-09-28T07:33:17.721Z,30.35
2022-09-28T07:35:55.381Z,32.95
2022-09-28T07:38:28.876Z,22.98
2022-09-28T07:41:12.016Z,22.40
2022-09-28T07:43:50.351Z,22.77
2022-09-28T07:46:18.061Z,19.35
2022-09-28T07:48:55.120Z,18.33
2022-09-28T07:51:34.049Z,18.40
2022-09-28T07:54:31.966Z,15.68
2022-09-28T07:57:28.829Z,14.43
2022-09-28T08:00:22.366Z,16.23
2022-09-28T08:02:49.469Z,15.93
2022-09-28T08:05:22.936Z,14.90
2022-09-28T08:07:49.797Z,14.18
2022-09-28T08:10:17.872Z,13.77
2022-09-28T08:13:05.472Z,17.08
2022-09-28T08:15:39.375Z,14.90
2022-09-28T08:18:21.255Z,13.00
2022-09-28T08:21:06.695Z,12.43
2022-09-28T08:23:33.542Z,10.68
2022-09-28T08:26:00.360Z,9.73
2022-09-28T08:28:27.196Z,9.40
2022-09-28T08:31:00.055Z,7.68
2022-09-28T08:33:53.917Z,8.82
2022-09-28T08:36:40.962Z,7.72
2022-09-28T08:39:28.089Z,9.50
2022-09-28T08:42:40.170Z,8.15
2022-09-28T08:45:31.757Z,8.77
2022-09-28T08:49:13.390Z,7.57
2022-09-28T08:52:23.686Z,5.32
2022-09-28T08:55:37.093Z,5.88
2022-09-28T08:58:13.628Z,6.13
2022-09-28T09:00:53.271Z,6.80
2022-09-28T09:03:41.975Z,8.27
2022-09-28T09:06:37.777Z,7.03
2022-09-28T09:10:03.664Z,7.40
2022-09-28T09:12:43.326Z,6.75
2022-09-28T09:15:31.538Z,6.50
2022-09-28T09:18:09.579Z,4.95
2022-09-28T09:21:13.193Z,5.32
2022-09-28T09:24:21.627Z,4.03
2022-09-28T09:26:57.597Z,3.80
2022-09-28T09:29:33.755Z,4.05
2022-09-28T09:32:29.169Z,4.45
2022-09-28T09:35:06.418Z,4.20
2022-09-28T09:38:02.268Z,5.57
2022-09-28T09:41:09.834Z,5.97
2022-09-28T09:44:37.013Z,5.97
2022-09-28T09:47:33.685Z,5.45
2022-09-28T09:50:16.338Z,4.70
2022-09-28T09:52:57.710Z,5.05
2022-09-28T09:55:41.994Z,4.20
2022-09-28T09:58:18.306Z,3.80
2022-09-28T10:00:54.337Z,3.38
2022-09-28T10:03:48.869Z,2.53
2022-09-28T10:06:27.595Z,2.50
2022-09-28T10:09:23.996Z,2.65
2022-09-28T10:11:52.184Z,2.88
2022-09-28T10:14:22.434Z,2.65
2022-09-28T10:17:06.014Z,2.50
2022-09-28T10:19:51.245Z,1.80
2022-09-28T10:22:28.564Z,1.88
2022-09-28T10:25:00.149Z,2.17
2022-09-28T10:27:34.546Z,2.47
2022-09-28T10:30:14.901Z,1.85
2022-09-28T10:32:46.771Z,1.77
2022-09-28T10:35:19.718Z,1.15
2022-09-28T10:38:17.199Z,1.10
2022-09-28T10:40:47.692Z,0.52
2022-09-28T10:43:23.681Z,1.67
2022-09-28T10:46:07.848Z,1.02
2022-09-28T10:48:52.469Z,0.50
2022-09-28T10:51:21.020Z,0.70
2022-09-28T10:54:01.694Z,0.63
2022-09-28T10:56:45.867Z,0.63
2022-09-28T10:59:30.481Z,0.60
2022-09-28T11:02:22.323Z,0.47
2022-09-28T11:04:57.825Z,0.60
2022-09-28T11:07:33.448Z,0.90
2022-09-28T11:10:02.231Z,1.10
2022-09-28T11:12:43.325Z,1.17
2022-09-28T11:15:18.534Z,1.55
2022-09-28T11:17:47.186Z,0.98
2022-09-28T11:20:34.741Z,0.73
2022-09-28T11:23:22.344Z,0.70
2022-09-28T11:25:59.194Z,0.65
2022-09-28T11:28:32.983Z,0.55
2022-09-28T11:31:04.036Z,0.40
2022-09-28T11:34:12.550Z,0.60
2022-09-28T11:37:24.733Z,0.43
2022-09-28T11:39:51.578Z,0.40
2022-09-28T11:42:26.035Z,0.32
2022-09-28T11:45:19.531Z,0.32
2022-09-28T11:48:15.899Z,0.60
2022-09-28T11:51:09.936Z,0.30
2022-09-28T11:53:58.815Z,0.95
2022-09-28T11:56:31.661Z,0.35
2022-09-28T11:59:06.668Z,0.20
2022-09-28T12:01:54.421Z,0.38
2022-09-28T12:05:24.162Z,0.47
2022-09-28T12:08:01.392Z,0.57
2022-09-28T12:10:57.234Z,0.30
2022-09-28T12:13:48.271Z,0.32
2022-09-28T12:16:53.093Z,0.50
2022-09-28T12:19:20.915Z,0.50
2022-09-28T12:21:51.516Z,0.50
2022-09-28T12:24:42.428Z,0.20
2022-09-28T12:27:31.584Z,0.30
2022-09-28T12:30:14.226Z,0.20
2022-09-28T12:32:49.940Z,0.20
2022-09-28T12:36:08.987Z,0.20
2022-09-28T12:38:46.016Z,0.10
2022-09-28T12:41:32.758Z,0.20
2022-09-28T12:44:33.905Z,0.20
2022-09-28T12:47:05.893Z,0.20
2022-09-28T12:52:56.086Z,0.20
2022-09-28T12:55:43.552Z,0.28
2022-09-28T12:58:31.963Z,0.20
2022-09-28T13:01:01.531Z,0.15
2022-09-28T13:03:50.139Z,0.20
2022-09-28T13:09:07.917Z,0.40
2022-09-28T13:11:41.385Z,0.20
2022-09-28T13:14:26.815Z,0.10
2022-09-28T13:17:25.931Z,0.10
2022-09-28T13:20:25.091Z,1.02
2022-09-28T13:23:05.326Z,0.17
2022-09-28T13:25:36.604Z,0.15
2022-09-28T13:28:05.744Z,0.20
2022-09-28T13:30:40.019Z,0.30
2022-09-28T13:33:13.051Z,0.20
2022-09-28T13:35:44.191Z,0.20
2022-09-28T13:38:20.878Z,0.13
2022-09-28T13:41:06.321Z,0.10
2022-09-28T13:43:35.845Z,0.15
2022-09-28T13:46:21.610Z,0.22
2022-09-28T13:49:06.634Z,0.20
2022-09-28T13:51:49.028Z,0.28
2022-09-28T13:54:50.882Z,0.28
2022-09-28T13:57:25.458Z,0.20
2022-09-28T14:00:04.056Z,0.63
2022-09-28T14:02:56.438Z,0.20
2022-09-28T14:05:23.302Z,0.25
2022-09-28T14:08:09.161Z,0.22
2022-09-28T14:14:19.394Z,0.20
2022-09-28T14:16:47.792Z,0.10
2022-09-28T14:19:19.431Z,0.10
2022-09-28T14:22:04.524Z,0.10
2022-09-28T14:24:46.328Z,0.20
2022-09-28T14:27:29.973Z,0.10
2022-09-28T14:30:06.543Z,0.10
2022-09-28T14:32:37.520Z,0.30
2022-09-28T14:35:07.656Z,0.10
2022-09-28T14:37:58.037Z,0.30
2022-09-28T14:40:49.908Z,0.70
2022-09-28T14:43:44.650Z,0.30
2022-09-28T14:46:11.532Z,0.28
2022-09-28T14:48:55.713Z,0.20
2022-09-28T14:51:31.904Z,0.30
2022-09-28T14:54:12.787Z,0.10
2022-09-28T14:56:56.560Z,0.10
2022-09-28T14:59:36.171Z,0.22
2022-09-28T15:02:12.571Z,0.30
2022-09-28T15:04:50.825Z,0.10
2022-09-28T15:07:23.710Z,0.15
2022-09-28T15:09:55.745Z,0.17
2022-09-28T15:12:28.757Z,0.10
2022-09-28T15:15:04.038Z,0.10
2022-09-28T15:17:39.460Z,0.20
2022-09-28T15:20:24.764Z,0.20
2022-09-28T15:22:58.071Z,0.20
2022-09-28T15:25:30.774Z,0.20
2022-09-28T15:28:19.467Z,0.20
2022-09-28T15:33:46.718Z,0.10
2022-09-28T15:36:26.566Z,0.20
2022-09-28T15:39:00.951Z,0.10
2022-09-28T15:41:29.021Z,0.10
2022-09-28T15:44:34.169Z,0.30
2022-09-28T15:47:26.272Z,0.30
2022-09-28T15:49:58.797Z,0.50
2022-09-28T15:52:34.083Z,0.40
2022-09-28T15:55:03.009Z,1.02
2022-09-28T15:57:37.176Z,0.55
2022-09-28T16:00:27.382Z,0.80
2022-09-28T16:03:20.913Z,0.70
2022-09-28T16:06:05.706Z,0.73
2022-09-28T16:08:43.637Z,0.80
2022-09-28T16:11:37.827Z,0.47
2022-09-28T16:14:09.134Z,1.48
2022-09-28T16:16:50.553Z,1.40
2022-09-28T16:19:32.152Z,1.25
2022-09-28T16:22:02.210Z,1.00
2022-09-28T16:24:31.644Z,0.60
2022-09-28T16:27:08.557Z,1.10
2022-09-28T16:29:41.360Z,0.68
2022-09-28T16:32:26.218Z,0.32
2022-09-28T16:35:11.430Z,0.50
2022-09-28T16:37:43.113Z,0.60
2022-09-28T16:40:11.219Z,0.57
2022-09-28T16:42:48.669Z,1.55
2022-09-28T16:45:21.744Z,0.45
2022-09-28T16:47:53.130Z,1.83
2022-09-28T16:50:21.516Z,0.60
2022-09-28T16:53:18.106Z,0.43
2022-09-28T16:55:46.776Z,1.20
2022-09-28T16:58:13.708Z,1.65
2022-09-28T17:00:43.519Z,2.25
2022-09-28T17:03:14.723Z,0.80
2022-09-28T17:05:42.153Z,1.48
2022-09-28T17:08:13.759Z,1.85
2022-09-28T17:11:02.491Z,2.50
2022-09-28T17:13:33.950Z,4.68
2022-09-28T17:16:03.281Z,2.95
2022-09-28T17:18:32.100Z,2.65
2022-09-28T17:21:03.537Z,4.43
2022-09-28T17:23:30.608Z,1.98
2022-09-28T17:25:59.163Z,1.20
2022-09-28T17:28:30.076Z,2.03
2022-09-28T17:30:57.352Z,2.85
2022-09-28T17:33:24.421Z,3.05
2022-09-28T17:35:56.346Z,3.42
2022-09-28T17:38:23.232Z,1.70
2022-09-28T17:40:52.728Z,2.05
2022-09-28T17:43:22.347Z,2.88
2022-09-28T17:45:49.865Z,3.50
2022-09-28T17:48:19.172Z,1.20
2022-09-28T17:50:47.618Z,1.90
2022-09-28T17:53:15.255Z,2.17
2022-09-28T17:55:45.866Z,4.67
2022-09-28T17:58:22.188Z,2.20
2022-09-28T18:00:51.740Z,4.78
2022-09-28T18:03:24.856Z,1.67
2022-09-28T18:06:16.427Z,4.43
2022-09-28T18:08:46.120Z,1.40
2022-09-28T18:11:13.080Z,2.80
2022-09-28T18:13:40.713Z,2.97
2022-09-28T18:16:08.582Z,2.08
2022-09-28T18:18:38.562Z,2.97
2022-09-28T18:21:09.269Z,2.33
2022-09-28T18:23:37.731Z,2.63
2022-09-28T18:26:11.524Z,3.63
2022-09-28T18:28:38.501Z,5.30
2022-09-28T18:31:13.840Z,3.28
2022-09-28T18:33:41.077Z,4.10
2022-09-28T18:36:08.528Z,4.82
2022-09-28T18:38:36.373Z,5.28
2022-09-28T18:41:11.568Z,5.05
2022-09-28T18:43:38.395Z,4.57
2022-09-28T18:46:09.708Z,6.38
2022-09-28T18:48:37.791Z,3.75
2022-09-28T18:51:08.875Z,4.80
2022-09-28T18:53:36.194Z,4.57
2022-09-28T18:56:12.037Z,5.45
2022-09-28T18:58:40.330Z,4.68
2022-09-28T19:01:31.913Z,3.75
2022-09-28T19:04:00.766Z,3.65
2022-09-28T19:06:28.347Z,4.22
2022-09-28T19:08:56.327Z,3.78
2022-09-28T19:11:24.029Z,4.35
2022-09-28T19:13:51.409Z,4.53
2022-09-28T19:16:21.456Z,4.15
2022-09-28T19:18:48.887Z,4.47
2022-09-28T19:21:16.131Z,3.90
2022-09-28T19:23:48.932Z,3.40
2022-09-28T19:26:20.495Z,3.78
2022-09-28T19:28:48.082Z,3.95
2022-09-28T19:31:14.900Z,2.30
2022-09-28T19:33:41.980Z,4.63
2022-09-28T19:36:11.305Z,4.00
2022-09-28T19:38:39.632Z,3.88
2022-09-28T19:41:11.171Z,4.78
2022-09-28T19:43:38.457Z,4.07
2022-09-28T19:46:06.921Z,3.65
2022-09-28T19:48:34.483Z,2.50
2022-09-28T19:51:04.694Z,3.97
2022-09-28T19:53:37.983Z,3.58
2022-09-28T19:56:05.664Z,3.47
2022-09-28T19:58:35.684Z,2.90
2022-09-28T20:01:06.827Z,3.17
2022-09-28T20:03:34.825Z,3.50
2022-09-28T20:06:02.554Z,3.25
2022-09-28T20:08:32.459Z,4.43
2022-09-28T20:11:00.074Z,3.05
2022-09-28T20:13:35.858Z,0.55
2022-09-28T20:16:08.533Z,0.98
2022-09-28T20:18:36.926Z,3.05
2022-09-28T20:21:09.648Z,3.50
2022-09-28T20:23:36.653Z,3.80
2022-09-28T20:26:04.900Z,3.60
2022-09-28T20:28:32.225Z,4.15
2022-09-28T20:31:07.427Z,3.10
2022-09-28T20:33:36.132Z,3.78
2022-09-28T20:36:07.566Z,4.13
2022-09-28T20:38:35.336Z,4.20
2022-09-28T20:41:03.048Z,1.85
2022-09-28T20:43:31.513Z,4.03
2022-09-28T20:45:59.035Z,2.45
2022-09-28T20:48:26.770Z,2.88
2022-09-28T20:51:09.006Z,2.65
2022-09-28T20:53:37.478Z,4.53
2022-09-28T20:56:07.007Z,3.20
2022-09-28T20:58:34.696Z,3.03
2022-09-28T21:01:10.950Z,3.90
2022-09-28T21:03:38.587Z,3.63
2022-09-28T21:06:12.118Z,3.67
2022-09-28T21:08:40.527Z,3.05
2022-09-28T21:11:10.135Z,3.10
2022-09-28T21:13:36.984Z,2.72
2022-09-28T21:16:04.891Z,3.20
2022-09-28T21:18:31.751Z,2.88
2022-09-28T21:20:58.502Z,2.47
2022-09-28T21:23:25.624Z,2.25
2022-09-28T21:26:26.048Z,1.85
2022-09-28T21:28:54.603Z,2.13
2022-09-28T21:31:27.694Z,2.80
2022-09-28T21:33:56.036Z,2.47
2022-09-28T21:36:23.458Z,2.42
2022-09-28T21:38:50.556Z,2.75
2022-09-28T21:41:17.570Z,2.63
2022-09-28T21:43:45.833Z,2.67
2022-09-28T21:46:12.901Z,2.33
2022-09-28T21:48:39.783Z,2.92
2022-09-28T21:51:09.366Z,1.92
2022-09-28T21:53:37.784Z,2.75
2022-09-28T21:56:07.198Z,2.00
2022-09-28T21:58:35.509Z,1.60
2022-09-28T22:01:04.576Z,1.52
2022-09-28T22:05:58.937Z,1.02
2022-09-28T22:08:26.474Z,1.25
2022-09-28T22:11:02.127Z,1.27
2022-09-28T22:13:30.523Z,1.50
2022-09-28T22:15:58.938Z,0.77
2022-09-28T22:18:27.557Z,1.13
2022-09-28T22:21:14.470Z,1.33
2022-09-28T22:23:41.903Z,1.48
2022-09-28T22:26:12.724Z,1.48
2022-09-28T22:28:44.621Z,1.40
2022-09-28T22:31:11.527Z,1.52
2022-09-28T22:33:38.317Z,1.80
2022-09-28T22:36:05.483Z,1.70
2022-09-28T22:38:32.802Z,1.63
2022-09-28T22:40:59.970Z,1.90
2022-09-28T22:43:27.208Z,2.00
2022-09-28T22:46:03.578Z,1.80
2022-09-28T22:48:30.915Z,1.85
2022-09-28T22:50:57.752Z,1.95
2022-09-28T22:53:24.811Z,2.17
2022-09-28T22:55:51.656Z,1.90
2022-09-28T22:58:18.575Z,2.33
2022-09-28T23:00:45.449Z,1.92
2022-09-28T23:03:12.452Z,1.92
2022-09-28T23:05:39.348Z,1.35
2022-09-28T23:08:06.108Z,1.70
2022-09-28T23:10:33.512Z,2.00
2022-09-28T23:13:00.393Z,1.38
2022-09-28T23:15:28.637Z,1.92
2022-09-28T23:17:55.784Z,1.43
2022-09-28T23:20:22.696Z,1.55
2022-09-28T23:22:50.174Z,1.15
2022-09-28T23:25:18.395Z,1.05
2022-09-28T23:27:49.821Z,0.77
2022-09-28T23:30:18.753Z,1.15
2022-09-28T23:32:45.936Z,0.95
2022-09-28T23:35:14.415Z,0.88
2022-09-28T23:37:41.207Z,1.30
2022-09-28T23:40:08.340Z,1.20
2022-09-28T23:42:35.731Z,0.88
2022-09-28T23:45:02.600Z,1.17
2022-09-28T23:47:29.444Z,1.38
2022-09-28T23:49:56.250Z,1.05
2022-09-28T23:52:23.073Z,1.00
2022-09-28T23:54:49.853Z,0.80
2022-09-28T23:57:16.636Z,0.98
2022-09-28T23:59:43.432Z,0.40
